Terminal Aerodrome Forecast
Issued by NWS Missoula, MT

Home | Current Version | Previous Version | Text Only | Print | Product List | Glossary On
Versions: 1 2 3 4 5 6 7 8 9 10 11 12
000
FTUS45 KMSO 031730
TAFMSO
TAF
KMSO 031730Z 0318/0418 VRB05KT P6SM SKC
     FM032000 31010G15KT P6SM SKC
     FM040200 34005KT P6SM SKC=

USA.gov is the U.S. government's official web portal to all federal, state and local government web resources and services.